createdAt,value
2024-05-09T00:02:32.587Z,101776.81
2024-05-09T00:05:06.081Z,101777.00
2024-05-09T00:07:36.886Z,101787.63
2024-05-09T00:10:11.803Z,101781.50
2024-05-09T00:12:50.739Z,101773.72
2024-05-09T00:15:21.344Z,101760.72
2024-05-09T00:17:52.471Z,101755.69
2024-05-09T00:20:35.052Z,101761.75
2024-05-09T00:23:11.607Z,101767.84
2024-05-09T00:25:43.805Z,101774.88
2024-05-09T00:28:17.717Z,101782.06
2024-05-09T00:30:50.977Z,101788.31
2024-05-09T00:33:21.943Z,101785.69
2024-05-09T00:35:58.350Z,101785.28
2024-05-09T00:38:33.426Z,101790.50
2024-05-09T00:41:06.965Z,101787.97
2024-05-09T00:43:37.681Z,101787.44
2024-05-09T00:46:08.904Z,101788.66
2024-05-09T00:48:40.168Z,101778.84
2024-05-09T00:51:14.025Z,101762.19
2024-05-09T00:53:52.681Z,101755.16
2024-05-09T00:56:27.479Z,101761.13
2024-05-09T00:59:03.575Z,101758.50
2024-05-09T01:01:37.950Z,101756.78
2024-05-09T01:04:09.179Z,101751.59
2024-05-09T01:06:42.691Z,101749.03
2024-05-09T01:09:13.425Z,101755.22
2024-05-09T01:11:44.694Z,101761.31
2024-05-09T01:14:17.961Z,101767.56
2024-05-09T01:16:55.732Z,101760.78
2024-05-09T01:19:32.976Z,101763.38
2024-05-09T01:22:08.278Z,101759.06
2024-05-09T01:24:41.685Z,101752.88
2024-05-09T01:27:12.332Z,101753.66
2024-05-09T01:29:42.914Z,101753.56
2024-05-09T01:32:13.750Z,101756.13
2024-05-09T01:34:44.478Z,101753.59
2024-05-09T01:37:17.994Z,101754.69
2024-05-09T01:39:52.244Z,101757.59
2024-05-09T01:42:22.839Z,101756.09
2024-05-09T01:44:53.576Z,101747.69
2024-05-09T01:47:25.469Z,101750.34
2024-05-09T01:49:57.779Z,101751.41
2024-05-09T01:52:28.728Z,101751.50
2024-05-09T01:55:06.502Z,101743.69
2024-05-09T01:57:37.656Z,101762.00
2024-05-09T02:00:10.594Z,101755.13
2024-05-09T02:02:42.549Z,101758.72
2024-05-09T02:05:14.383Z,101757.97
2024-05-09T02:07:45.136Z,101764.47
2024-05-09T02:10:26.196Z,101762.22
2024-05-09T02:13:05.393Z,101773.72
2024-05-09T02:15:39.040Z,101775.44
2024-05-09T02:18:11.211Z,101779.03
2024-05-09T02:20:44.125Z,101783.41
2024-05-09T02:23:15.354Z,101784.19
2024-05-09T02:25:49.934Z,101772.13
2024-05-09T02:28:21.334Z,101770.41
2024-05-09T02:30:54.740Z,101780.75
2024-05-09T02:33:25.663Z,101783.34
2024-05-09T02:35:56.471Z,101780.75
2024-05-09T02:38:25.611Z,101778.00
2024-05-09T02:40:58.974Z,101772.72
2024-05-09T02:43:26.892Z,101770.94
2024-05-09T02:45:57.564Z,101769.06
2024-05-09T02:48:25.967Z,101755.19
2024-05-09T02:50:57.048Z,101748.47
2024-05-09T02:53:25.360Z,101745.34
2024-05-09T02:55:58.690Z,101744.06
2024-05-09T02:58:26.859Z,101737.66
2024-05-09T03:00:57.551Z,101743.00
2024-05-09T03:03:26.127Z,101736.81
2024-05-09T03:05:56.946Z,101730.78
2024-05-09T03:08:25.222Z,101723.00
2024-05-09T03:10:58.668Z,101727.34
2024-05-09T03:13:26.717Z,101729.19
2024-05-09T03:15:57.327Z,101737.25
2024-05-09T03:18:47.766Z,101733.75
2024-05-09T03:21:31.651Z,101731.19
2024-05-09T03:23:59.835Z,101739.84
2024-05-09T03:26:35.934Z,101736.41
2024-05-09T03:29:10.103Z,101741.63
2024-05-09T03:31:42.126Z,101743.31
2024-05-09T03:34:11.439Z,101753.63
2024-05-09T03:36:45.944Z,101754.44
2024-05-09T03:39:20.085Z,101749.19
2024-05-09T03:41:55.253Z,101743.91
2024-05-09T03:44:26.152Z,101743.94
2024-05-09T03:46:54.361Z,101734.53
2024-05-09T03:49:28.223Z,101726.91
2024-05-09T03:51:58.606Z,101723.59
2024-05-09T03:54:37.829Z,101713.28
2024-05-09T03:57:12.308Z,101711.72
2024-05-09T03:59:42.953Z,101715.31
2024-05-09T04:02:13.989Z,101714.56
2024-05-09T04:04:45.429Z,101720.69
2024-05-09T04:07:29.559Z,101723.34
2024-05-09T04:10:01.403Z,101727.66
2024-05-09T04:12:32.081Z,101725.19
2024-05-09T04:15:03.100Z,101718.34
2024-05-09T04:17:34.383Z,101718.44
2024-05-09T04:20:21.374Z,101707.47
2024-05-09T04:23:00.092Z,101717.88
2024-05-09T04:25:28.319Z,101723.91
2024-05-09T04:28:02.809Z,101719.59
2024-05-09T04:30:41.304Z,101710.19
2024-05-09T04:33:15.347Z,101717.16
2024-05-09T04:35:53.799Z,101709.31
2024-05-09T04:38:27.315Z,101710.28
2024-05-09T04:40:58.811Z,101715.56
2024-05-09T04:43:33.718Z,101716.44
2024-05-09T04:46:09.443Z,101719.09
2024-05-09T04:48:43.389Z,101718.13
2024-05-09T04:51:11.807Z,101711.31
2024-05-09T04:53:42.653Z,101714.88
2024-05-09T04:56:13.201Z,101716.47
2024-05-09T04:58:49.414Z,101723.31
2024-05-09T05:01:17.618Z,101725.06
2024-05-09T05:03:57.729Z,101720.66
2024-05-09T05:06:25.807Z,101726.66
2024-05-09T05:09:00.358Z,101720.56
2024-05-09T05:11:29.824Z,101720.56
2024-05-09T05:14:03.300Z,101720.47
2024-05-09T05:16:33.174Z,101715.31
2024-05-09T05:19:05.851Z,101716.06
2024-05-09T05:21:40.933Z,101713.38
2024-05-09T05:24:13.939Z,101706.50
2024-05-09T05:26:45.774Z,101709.97
2024-05-09T05:29:20.953Z,101708.19
2024-05-09T05:31:50.675Z,101697.44
2024-05-09T05:34:25.067Z,101708.38
2024-05-09T05:36:58.881Z,101692.63
2024-05-09T05:39:32.888Z,101682.31
2024-05-09T05:42:00.949Z,101684.56
2024-05-09T05:44:34.234Z,101674.13
2024-05-09T05:47:02.304Z,101676.50
2024-05-09T05:49:33.062Z,101671.13
2024-05-09T05:52:01.117Z,101678.50
2024-05-09T05:54:31.929Z,101668.47
2024-05-09T05:57:00.000Z,101658.38
2024-05-09T05:59:30.710Z,101640.41
2024-05-09T06:02:01.626Z,101635.97
2024-05-09T06:04:32.319Z,101624.31
2024-05-09T06:07:00.321Z,101624.41
2024-05-09T06:09:31.082Z,101615.19
2024-05-09T06:12:01.976Z,101610.69
2024-05-09T06:14:33.563Z,101606.78
2024-05-09T06:17:06.946Z,101605.72
2024-05-09T06:23:49.019Z,101585.28
2024-05-09T06:23:55.032Z,101597.41
2024-05-09T06:26:17.128Z,101570.06
2024-05-09T06:28:47.738Z,101561.97
2024-05-09T06:31:15.910Z,101554.84
2024-05-09T06:33:49.499Z,101553.06
2024-05-09T06:36:17.590Z,101544.38
2024-05-09T06:38:49.920Z,101549.00
2024-05-09T06:41:18.059Z,101543.03
2024-05-09T06:43:56.445Z,101538.53
2024-05-09T06:46:25.113Z,101545.06
2024-05-09T06:49:04.506Z,101537.53
2024-05-09T06:51:37.577Z,101530.44
2024-05-09T06:54:11.190Z,101531.81
2024-05-09T06:56:43.056Z,101524.66
2024-05-09T06:59:16.818Z,101524.41
2024-05-09T07:03:31.364Z,101533.75
2024-05-09T07:11:18.168Z,101532.75
2024-05-09T07:13:57.815Z,101527.38
2024-05-09T07:16:34.101Z,101524.22
2024-05-09T07:19:04.891Z,101523.00
2024-05-09T07:21:44.204Z,101531.03
2024-05-09T07:24:15.108Z,101525.06
2024-05-09T07:26:58.852Z,101529.91
2024-05-09T07:29:34.051Z,101535.09
2024-05-09T07:32:06.885Z,101535.84
2024-05-09T07:34:43.096Z,101540.25
2024-05-09T07:37:17.832Z,101533.81
2024-05-09T07:39:47.771Z,101538.06
2024-05-09T07:42:23.882Z,101532.38
2024-05-09T07:45:21.065Z,101532.00
2024-05-09T07:53:38.493Z,101533.06
2024-05-09T07:56:22.694Z,101530.13
2024-05-09T07:59:04.013Z,101519.22
2024-05-09T08:06:05.297Z,101525.25
2024-05-09T08:08:33.323Z,101533.50
2024-05-09T08:11:06.611Z,101539.38
2024-05-09T08:13:35.001Z,101558.00
2024-05-09T08:16:09.144Z,101561.19
2024-05-09T08:18:37.502Z,101552.03
2024-05-09T08:21:08.800Z,101539.00
2024-05-09T08:23:36.820Z,101536.66
2024-05-09T08:26:07.671Z,101537.22
2024-05-09T08:28:49.748Z,101551.56
2024-05-09T08:31:23.412Z,101555.25
2024-05-09T08:33:51.839Z,101540.84
2024-05-09T08:36:23.817Z,101544.81
2024-05-09T08:39:03.344Z,101535.78
2024-05-09T08:41:36.416Z,101545.63
2024-05-09T08:44:18.447Z,101532.41
2024-05-09T08:47:18.117Z,101532.69
2024-05-09T08:49:49.528Z,101531.56
2024-05-09T08:52:21.742Z,101539.25
2024-05-09T08:54:54.875Z,101525.50
2024-05-09T08:57:31.153Z,101533.06
2024-05-09T09:00:08.039Z,101536.41
2024-05-09T09:02:45.327Z,101539.44
2024-05-09T09:05:21.792Z,101544.53
2024-05-09T09:07:52.179Z,101535.25
2024-05-09T09:10:53.289Z,101526.38
2024-05-09T09:13:52.478Z,101522.91
2024-05-09T09:16:45.410Z,101529.00
2024-05-09T09:19:30.839Z,101532.69
2024-05-09T09:22:02.647Z,101525.66
2024-05-09T09:24:35.830Z,101528.25
2024-05-09T09:27:08.251Z,101517.59
2024-05-09T09:29:55.572Z,101508.53
2024-05-09T09:32:38.054Z,101510.72
2024-05-09T09:35:10.729Z,101501.66
2024-05-09T09:37:53.019Z,101506.88
2024-05-09T09:40:31.671Z,101503.84
2024-05-09T09:43:14.268Z,101505.06
2024-05-09T09:46:12.912Z,101497.81
2024-05-09T09:48:46.233Z,101497.94
2024-05-09T09:51:23.759Z,101499.16
2024-05-09T09:53:56.397Z,101500.22
2024-05-09T09:56:34.037Z,101502.22
2024-05-09T09:59:31.798Z,101495.28
2024-05-09T10:02:01.854Z,101483.84
2024-05-09T10:04:36.053Z,101489.59
2024-05-09T10:07:11.226Z,101488.75
2024-05-09T10:09:45.056Z,101486.28
2024-05-09T10:12:19.989Z,101483.78
2024-05-09T10:15:00.959Z,101484.75
2024-05-09T10:17:35.000Z,101485.19
2024-05-09T10:20:18.234Z,101484.22
2024-05-09T10:22:56.692Z,101485.94
2024-05-09T10:25:31.119Z,101484.78
2024-05-09T10:28:16.049Z,101478.91
2024-05-09T10:30:50.359Z,101482.13
2024-05-09T10:33:24.572Z,101483.31
2024-05-09T10:35:56.540Z,101480.69
2024-05-09T10:38:39.186Z,101469.53
2024-05-09T10:41:16.592Z,101471.75
2024-05-09T10:43:51.541Z,101474.53
2024-05-09T10:46:34.554Z,101466.72
2024-05-09T10:49:19.335Z,101467.91
2024-05-09T10:52:09.255Z,101461.06
2024-05-09T10:54:48.011Z,101461.41
2024-05-09T10:57:38.900Z,101458.53
2024-05-09T11:00:27.176Z,101459.81
2024-05-09T11:03:18.303Z,101455.19
2024-05-09T11:05:52.048Z,101450.63
2024-05-09T11:08:23.826Z,101455.19
2024-05-09T11:11:12.791Z,101449.00
2024-05-09T11:13:51.278Z,101445.06
2024-05-09T11:16:22.955Z,101443.94
2024-05-09T11:18:55.118Z,101440.41
2024-05-09T11:21:27.726Z,101442.97
2024-05-09T11:23:55.973Z,101438.38
2024-05-09T11:26:32.351Z,101433.03
2024-05-09T11:29:02.541Z,101428.59
2024-05-09T11:31:33.446Z,101420.84
2024-05-09T11:34:05.526Z,101419.31
2024-05-09T11:36:39.323Z,101421.66
2024-05-09T11:39:07.302Z,101423.28
2024-05-09T11:41:40.657Z,101420.53
2024-05-09T11:44:08.586Z,101421.06
2024-05-09T11:46:39.235Z,101420.28
2024-05-09T11:49:07.432Z,101426.56
2024-05-09T11:51:38.264Z,101415.69
2024-05-09T11:54:06.183Z,101410.59
2024-05-09T11:56:42.382Z,101407.69
2024-05-09T11:59:10.852Z,101403.09
2024-05-09T12:01:41.693Z,101404.00
2024-05-09T12:04:10.130Z,101397.81
2024-05-09T12:06:40.851Z,101395.06
2024-05-09T12:09:08.815Z,101396.25
2024-05-09T12:11:42.130Z,101388.66
2024-05-09T12:14:12.940Z,101377.44
2024-05-09T12:16:41.144Z,101382.22
2024-05-09T12:19:11.899Z,101377.75
2024-05-09T12:21:39.952Z,101383.13
2024-05-09T12:24:10.480Z,101368.84
2024-05-09T12:26:41.438Z,101380.03
2024-05-09T12:29:12.056Z,101370.38
2024-05-09T12:31:40.104Z,101364.94
2024-05-09T12:34:11.373Z,101357.72
2024-05-09T12:36:39.446Z,101356.75
2024-05-09T12:39:10.111Z,101354.97
2024-05-09T12:41:40.767Z,101358.22
2024-05-09T12:44:11.339Z,101359.47
2024-05-09T12:46:39.261Z,101358.25
2024-05-09T12:49:10.255Z,101346.25
2024-05-09T12:51:38.479Z,101336.97
2024-05-09T12:54:09.184Z,101336.06
2024-05-09T12:56:37.222Z,101340.66
2024-05-09T12:59:13.171Z,101334.31
2024-05-09T13:01:41.268Z,101339.69
2024-05-09T13:04:12.104Z,101328.19
2024-05-09T13:06:40.431Z,101334.31
2024-05-09T13:09:12.030Z,101314.13
2024-05-09T13:11:39.982Z,101324.38
2024-05-09T13:14:13.383Z,101318.38
2024-05-09T13:16:41.554Z,101322.47
2024-05-09T13:19:12.363Z,101321.47
2024-05-09T13:21:40.432Z,101308.94
2024-05-09T13:24:11.011Z,101303.66
2024-05-09T13:26:38.978Z,101311.63
2024-05-09T13:29:10.929Z,101312.59
2024-05-09T13:31:41.578Z,101320.72
2024-05-09T13:34:12.273Z,101313.06
2024-05-09T13:36:40.574Z,101304.38
2024-05-09T13:39:11.297Z,101298.44
2024-05-09T13:41:39.473Z,101296.16
2024-05-09T13:44:10.019Z,101300.63
2024-05-09T13:46:38.066Z,101290.22
2024-05-09T13:49:18.015Z,101285.03
2024-05-09T13:51:52.785Z,101284.72
2024-05-09T13:54:26.456Z,101279.03
2024-05-09T13:56:54.593Z,101281.72
2024-05-09T13:59:26.453Z,101292.38
2024-05-09T14:01:54.596Z,101289.28
2024-05-09T14:04:29.685Z,101278.41
2024-05-09T14:06:58.037Z,101271.31
2024-05-09T14:09:28.930Z,101266.25
2024-05-09T14:11:56.980Z,101266.31
2024-05-09T14:14:27.705Z,101267.63
2024-05-09T14:16:55.764Z,101266.06
2024-05-09T14:19:29.156Z,101254.75
2024-05-09T14:21:57.302Z,101255.06
2024-05-09T14:24:28.066Z,101244.16
2024-05-09T14:26:55.964Z,101248.06
2024-05-09T14:29:26.557Z,101240.25
2024-05-09T14:31:54.448Z,101236.34
2024-05-09T14:34:30.902Z,101243.25
2024-05-09T14:36:59.619Z,101236.31
2024-05-09T14:39:30.309Z,101234.47
2024-05-09T14:41:58.411Z,101234.94
2024-05-09T14:44:29.037Z,101225.59
2024-05-09T14:46:57.164Z,101220.41
2024-05-09T14:49:31.308Z,101220.00
2024-05-09T14:52:00.409Z,101217.47
2024-05-09T14:54:31.182Z,101214.53
2024-05-09T14:56:59.275Z,101206.16
2024-05-09T14:59:30.037Z,101201.53
2024-05-09T15:01:58.407Z,101205.59
2024-05-09T15:04:32.021Z,101192.59
2024-05-09T15:07:00.913Z,101203.22
2024-05-09T15:09:41.909Z,101199.16
2024-05-09T15:12:09.944Z,101185.75
2024-05-09T15:14:40.547Z,101188.97
2024-05-09T15:17:11.714Z,101188.84
2024-05-09T15:19:45.339Z,101201.44
2024-05-09T15:22:16.539Z,101193.56
2024-05-09T15:24:48.525Z,101192.28
2024-05-09T15:27:17.406Z,101179.66
2024-05-09T15:29:50.132Z,101182.31
2024-05-09T15:32:24.209Z,101176.72
2024-05-09T15:34:57.531Z,101183.19
2024-05-09T15:37:25.644Z,101174.25
2024-05-09T15:39:59.057Z,101176.88
2024-05-09T15:42:27.361Z,101175.34
2024-05-09T15:44:57.942Z,101166.63
2024-05-09T15:47:27.943Z,101177.03
2024-05-09T15:50:01.354Z,101171.94
2024-05-09T15:52:32.099Z,101168.31
2024-05-09T15:54:59.987Z,101169.38
2024-05-09T15:57:30.754Z,101171.53
2024-05-09T15:59:58.853Z,101168.03
2024-05-09T16:02:29.755Z,101164.63
2024-05-09T16:05:00.650Z,101163.06
2024-05-09T16:07:31.386Z,101166.63
2024-05-09T16:09:59.506Z,101170.50
2024-05-09T16:12:30.357Z,101168.88
2024-05-09T16:14:58.400Z,101162.97
2024-05-09T16:17:34.483Z,101157.94
2024-05-09T16:20:09.384Z,101152.56
2024-05-09T16:22:46.238Z,101149.72
2024-05-09T16:25:14.479Z,101154.19
2024-05-09T16:27:45.645Z,101148.50
2024-05-09T16:30:21.036Z,101140.06
2024-05-09T16:33:00.947Z,101150.81
2024-05-09T16:35:31.707Z,101151.81
2024-05-09T16:38:02.498Z,101154.69
2024-05-09T16:40:37.637Z,101146.28
2024-05-09T16:43:14.488Z,101143.38
2024-05-09T16:45:45.029Z,101158.56
2024-05-09T16:48:17.067Z,101141.84
2024-05-09T16:50:47.749Z,101147.25
2024-05-09T16:53:18.359Z,101140.75
2024-05-09T16:55:46.256Z,101145.06
2024-05-09T16:58:17.024Z,101137.25
2024-05-09T17:00:45.328Z,101132.81
2024-05-09T17:03:17.551Z,101134.22
2024-05-09T17:05:50.897Z,101136.50
2024-05-09T17:08:25.303Z,101140.41
2024-05-09T17:10:56.022Z,101121.31
2024-05-09T17:13:27.005Z,101142.72
2024-05-09T17:16:00.784Z,101136.19
2024-05-09T17:18:31.898Z,101130.25
2024-05-09T17:21:02.662Z,101132.72
2024-05-09T17:23:35.052Z,101127.22
2024-05-09T17:26:03.189Z,101128.22
2024-05-09T17:28:34.004Z,101133.69
2024-05-09T17:31:02.094Z,101136.16
2024-05-09T17:33:32.996Z,101132.78
2024-05-09T17:36:03.820Z,101135.81
2024-05-09T17:38:34.479Z,101138.97
2024-05-09T17:41:02.529Z,101141.72
2024-05-09T17:43:36.220Z,101144.72
2024-05-09T17:46:04.611Z,101140.53
2024-05-09T17:48:36.074Z,101137.28
2024-05-09T17:51:07.127Z,101146.19
2024-05-09T17:53:37.903Z,101148.44
2024-05-09T17:56:11.847Z,101145.59
2024-05-09T17:58:41.201Z,101148.69
2024-05-09T18:01:12.178Z,101150.59
2024-05-09T18:03:41.472Z,101147.53
2024-05-09T18:06:16.821Z,101143.00
2024-05-09T18:08:44.991Z,101147.66
2024-05-09T18:11:18.480Z,101148.69
2024-05-09T18:13:48.481Z,101142.53
2024-05-09T18:16:19.951Z,101147.38
2024-05-09T18:18:48.800Z,101143.91
2024-05-09T18:21:25.858Z,101145.47
2024-05-09T18:23:56.766Z,101152.06
2024-05-09T18:26:31.724Z,101148.97
2024-05-09T18:28:59.763Z,101146.28
2024-05-09T18:31:33.428Z,101146.16
2024-05-09T18:34:01.440Z,101144.94
2024-05-09T18:36:35.015Z,101151.53
2024-05-09T18:39:03.374Z,101137.84
2024-05-09T18:41:33.942Z,101147.81
2024-05-09T18:44:02.016Z,101154.41
2024-05-09T18:46:32.935Z,101156.38
2024-05-09T18:49:01.898Z,101157.94
2024-05-09T18:51:35.377Z,101156.44
2024-05-09T18:54:03.562Z,101168.53
2024-05-09T18:56:34.143Z,101172.00
2024-05-09T18:59:02.069Z,101168.63
2024-05-09T19:01:32.853Z,101169.97
2024-05-09T19:04:01.043Z,101170.50
2024-05-09T19:06:39.211Z,101180.53
2024-05-09T19:09:07.099Z,101176.31
2024-05-09T19:11:40.184Z,101184.47
2024-05-09T19:14:12.487Z,101203.44
2024-05-09T19:16:48.311Z,101193.00
2024-05-09T19:19:16.627Z,101190.94
2024-05-09T19:21:50.262Z,101196.97
2024-05-09T19:24:18.338Z,101197.34
2024-05-09T19:26:49.401Z,101201.50
2024-05-09T19:29:17.400Z,101196.00
2024-05-09T19:31:48.093Z,101194.06
2024-05-09T19:34:17.582Z,101196.75
2024-05-09T19:36:51.512Z,101199.28
2024-05-09T19:39:22.774Z,101204.84
2024-05-09T19:41:54.426Z,101209.69
2024-05-09T19:44:22.802Z,101214.03
2024-05-09T19:46:53.563Z,101217.25
2024-05-09T19:49:21.683Z,101224.69
2024-05-09T19:51:55.198Z,101232.69
2024-05-09T19:54:23.273Z,101229.66
2024-05-09T19:56:54.101Z,101231.72
2024-05-09T19:59:22.033Z,101240.84
2024-05-09T20:01:52.890Z,101239.63
2024-05-09T20:04:21.894Z,101238.47
2024-05-09T20:06:55.174Z,101243.25
2024-05-09T20:09:23.769Z,101248.38
2024-05-09T20:11:54.384Z,101254.47
2024-05-09T20:14:23.700Z,101251.09
2024-05-09T20:16:54.335Z,101265.91
2024-05-09T20:19:22.508Z,101277.53
2024-05-09T20:21:56.111Z,101282.03
2024-05-09T20:24:26.744Z,101284.09
2024-05-09T20:26:54.710Z,101286.97
2024-05-09T20:29:25.639Z,101298.16
2024-05-09T20:31:53.620Z,101299.00
2024-05-09T20:34:30.293Z,101302.47
2024-05-09T20:37:02.244Z,101306.66
2024-05-09T20:39:34.776Z,101306.59
2024-05-09T20:42:03.217Z,101309.47
2024-05-09T20:44:36.836Z,101315.94
2024-05-09T20:47:05.131Z,101322.41
2024-05-09T20:49:35.795Z,101327.50
2024-05-09T20:52:06.868Z,101329.47
2024-05-09T20:54:37.549Z,101327.03
2024-05-09T20:57:06.634Z,101336.75
2024-05-09T20:59:37.252Z,101334.41
2024-05-09T21:02:05.644Z,101340.59
2024-05-09T21:04:36.506Z,101341.38
2024-05-09T21:07:07.297Z,101349.00
2024-05-09T21:09:37.903Z,101348.63
2024-05-09T21:12:06.228Z,101353.59
2024-05-09T21:14:36.817Z,101366.53
2024-05-09T21:17:05.255Z,101366.97
2024-05-09T21:19:35.969Z,101372.38
2024-05-09T21:22:06.656Z,101373.78
2024-05-09T21:24:37.592Z,101366.19
2024-05-09T21:27:05.984Z,101357.38
2024-05-09T21:29:36.488Z,101361.84
2024-05-09T21:32:04.582Z,101364.59
2024-05-09T21:34:37.964Z,101353.53
2024-05-09T21:37:08.798Z,101357.91
2024-05-09T21:39:39.641Z,101355.50
2024-05-09T21:42:07.588Z,101358.16
2024-05-09T21:44:38.158Z,101362.50
2024-05-09T21:47:06.319Z,101346.09
2024-05-09T21:49:36.984Z,101353.88
2024-05-09T21:52:08.401Z,101350.88
2024-05-09T21:54:39.085Z,101355.25
2024-05-09T21:57:09.126Z,101341.22
2024-05-09T21:59:40.512Z,101346.72
2024-05-09T22:02:08.745Z,101337.84
2024-05-09T22:04:39.422Z,101344.63
2024-05-09T22:07:10.312Z,101339.41
2024-05-09T22:09:46.541Z,101334.78
2024-05-09T22:12:14.766Z,101329.69
2024-05-09T22:14:47.944Z,101330.94
2024-05-09T22:17:16.092Z,101328.66
2024-05-09T22:19:48.659Z,101333.88
2024-05-09T22:22:21.633Z,101329.16
2024-05-09T22:24:52.439Z,101326.38
2024-05-09T22:27:21.031Z,101319.59
2024-05-09T22:29:52.765Z,101320.72
2024-05-09T22:32:20.787Z,101311.75
2024-05-09T22:34:54.239Z,101313.69
2024-05-09T22:37:25.565Z,101311.19
2024-05-09T22:39:56.356Z,101312.47
2024-05-09T22:42:24.473Z,101300.41
2024-05-09T22:44:55.049Z,101312.44
2024-05-09T22:47:23.099Z,101310.56
2024-05-09T22:49:53.823Z,101305.13
2024-05-09T22:52:22.566Z,101296.78
2024-05-09T22:54:55.869Z,101298.50
2024-05-09T22:57:25.903Z,101304.56
2024-05-09T22:59:56.642Z,101296.63
2024-05-09T23:02:24.678Z,101295.63
2024-05-09T23:04:55.775Z,101285.03
2024-05-09T23:07:24.879Z,101285.84
2024-05-09T23:09:58.248Z,101284.09
2024-05-09T23:12:26.422Z,101291.06
2024-05-09T23:14:56.990Z,101270.19
2024-05-09T23:17:24.990Z,101283.31
2024-05-09T23:19:55.791Z,101269.47
2024-05-09T23:22:26.872Z,101270.53
2024-05-09T23:25:00.287Z,101268.97
2024-05-09T23:27:28.404Z,101268.19
2024-05-09T23:29:59.182Z,101262.38
2024-05-09T23:32:27.410Z,101264.84
2024-05-09T23:34:58.267Z,101266.81
2024-05-09T23:37:26.490Z,101264.72
2024-05-09T23:40:00.152Z,101259.78
2024-05-09T23:42:28.341Z,101260.78
2024-05-09T23:44:58.958Z,101256.78
2024-05-09T23:47:26.947Z,101257.28
2024-05-09T23:49:57.624Z,101250.63
2024-05-09T23:52:25.758Z,101263.16
2024-05-09T23:54:56.666Z,101259.59
2024-05-09T23:57:27.347Z,101254.38
2024-05-09T23:59:58.262Z,101249.19
